Time;durP1;ratioP1;P1;durP2;ratioP2;P2;SDS_P1;SDS_P2;PMS_P1;PMS_P2;Temp;Humidity;BMP_temperature;BMP_pressure;BME280_temperature;BME280_humidity;BME280_pressure;Samples;Min_cycle;Max_cycle;Signal;HPM_P1;HPM_P2
2023/04/08 00:00:33;;;;;;;21.67;10.85;;;;;;;7.60;99.64;102136.63;5009813;28;20048;-82
2023/04/08 00:02:58;;;;;;;23.00;10.93;;;;;;;7.63;99.98;102143.72;4981373;28;20498;-82
2023/04/08 00:05:24;;;;;;;33.67;12.60;;;;;;;7.63;99.78;102147.31;4988758;28;20026;-82
2023/04/08 00:07:50;;;;;;;27.55;11.00;;;;;;;7.62;99.51;102136.56;4988833;28;20022;-82
2023/04/08 00:10:15;;;;;;;27.00;10.57;;;;;;;7.63;99.65;102147.31;4989154;28;20029;-82
2023/04/08 00:12:40;;;;;;;25.23;11.35;;;;;;;7.62;100.00;102147.38;4988617;28;20502;-82
2023/04/08 00:15:06;;;;;;;25.02;11.45;;;;;;;7.62;100.00;102144.69;4988581;28;20046;-82
2023/04/08 00:17:32;;;;;;;25.40;11.88;;;;;;;7.65;99.66;102150.88;4972301;28;20423;-81
2023/04/08 00:19:57;;;;;;;23.65;12.30;;;;;;;7.64;99.52;102140.94;4971822;28;20488;-81
2023/04/08 00:22:23;;;;;;;25.75;11.60;;;;;;;7.66;99.00;102143.63;4988261;28;20038;-81
2023/04/08 00:24:48;;;;;;;37.40;12.55;;;;;;;7.69;99.76;102146.19;4989871;28;20030;-82
2023/04/08 00:27:14;;;;;;;23.88;12.45;;;;;;;7.68;100.00;102145.31;4979730;28;20509;-82
2023/04/08 00:29:39;;;;;;;25.10;12.27;;;;;;;7.68;100.00;102134.47;4990199;28;20030;-81
2023/04/08 00:32:05;;;;;;;28.15;12.38;;;;;;;7.69;99.22;102148.91;5007107;28;20034;-82
2023/04/08 00:34:30;;;;;;;35.88;14.38;;;;;;;7.68;100.00;102137.19;4994716;28;20030;-81
2023/04/08 00:36:56;;;;;;;29.70;12.95;;;;;;;7.68;100.00;102141.72;4981301;28;20247;-82
2023/04/08 00:39:22;;;;;;;30.33;13.07;;;;;;;7.68;99.85;102147.13;4989001;28;20477;-81
2023/04/08 00:41:47;;;;;;;32.53;13.88;;;;;;;7.69;99.85;102138.06;5002119;28;20033;-81
2023/04/08 00:44:12;;;;;;;31.08;12.45;;;;;;;7.68;100.00;102147.13;4971021;28;20534;-82
2023/04/08 00:46:39;;;;;;;28.60;12.77;;;;;;;7.68;100.00;102133.59;4987291;28;20038;-82
2023/04/08 00:49:06;;;;;;;36.47;15.10;;;;;;;7.67;100.00;102146.25;4994202;28;20406;-81
2023/04/08 00:51:35;;;;;;;28.05;12.98;;;;;;;7.68;100.00;102149.84;4983911;28;20454;-82
2023/04/08 00:54:01;;;;;;;32.58;13.15;;;;;;;7.66;99.75;102147.22;4971414;28;20401;-82
2023/04/08 00:56:27;;;;;;;31.77;13.73;;;;;;;7.67;99.75;102146.25;4988439;28;20301;-81
2023/04/08 00:58:54;;;;;;;30.73;12.90;;;;;;;7.70;100.00;102150.69;5006360;28;20113;-81
2023/04/08 01:01:38;;;;;;;47.67;19.88;;;;;;;7.71;100.00;102155.16;5006317;28;20434;-82
2023/04/08 01:04:12;;;;;;;38.42;15.05;;;;;;;7.73;100.00;102155.09;4988760;28;20046;-82
2023/04/08 01:06:48;;;;;;;31.15;14.60;;;;;;;7.70;100.00;102156.09;4984287;28;20603;-82
2023/04/08 01:09:19;;;;;;;27.80;13.48;;;;;;;7.71;99.83;102157.00;4991481;28;20502;-82
2023/04/08 01:11:48;;;;;;;33.90;13.40;;;;;;;7.73;99.62;102161.38;4970552;28;20033;-82
2023/04/08 01:14:19;;;;;;;38.55;13.90;;;;;;;7.70;99.81;102153.41;4969798;28;20486;-82
2023/04/08 01:16:45;;;;;;;30.60;14.43;;;;;;;7.75;99.26;102156.81;4970210;28;20038;-82
2023/04/08 01:19:20;;;;;;;35.05;15.77;;;;;;;7.73;99.19;102141.53;4959836;28;20026;-81
2023/04/08 01:21:47;;;;;;;29.27;14.38;;;;;;;7.76;99.57;102168.53;4986972;28;20104;-82
2023/04/08 01:24:27;;;;;;;30.98;13.70;;;;;;;7.74;99.28;102151.41;4987586;28;20100;-82
2023/04/08 01:26:56;;;;;;;27.85;13.32;;;;;;;7.75;99.04;102164.94;4986793;28;20487;-82
2023/04/08 01:29:25;;;;;;;33.47;15.27;;;;;;;7.68;99.41;102148.03;4971013;28;20042;-82
2023/04/08 01:31:53;;;;;;;34.40;14.35;;;;;;;7.75;100.00;102156.81;4970792;28;20042;-81
2023/04/08 01:34:20;;;;;;;33.42;16.00;;;;;;;7.75;100.00;102164.06;4971249;28;20062;-81
2023/04/08 01:36:46;;;;;;;32.08;15.25;;;;;;;7.77;100.00;102164.84;4976234;28;20089;-82
2023/04/08 01:39:15;;;;;;;40.47;15.35;;;;;;;7.74;100.00;102162.25;4982723;28;20434;-82
2023/04/08 01:41:41;;;;;;;24.65;12.98;;;;;;;7.74;99.89;102167.69;4992468;28;20239;-82
2023/04/08 01:44:08;;;;;;;35.78;15.88;;;;;;;7.72;100.00;102159.63;5009988;28;20405;-82
2023/04/08 01:46:34;;;;;;;38.33;15.77;;;;;;;7.76;100.00;102174.81;4993854;28;20025;-82
2023/04/08 01:49:01;;;;;;;44.65;15.35;;;;;;;7.73;100.00;102166.81;5008652;28;20391;-82
2023/04/08 01:51:28;;;;;;;37.13;15.93;;;;;;;7.76;100.00;102180.22;4993221;28;20326;-82
2023/04/08 01:53:55;;;;;;;32.00;15.18;;;;;;;7.72;100.00;102175.88;4992544;28;20736;-81
2023/04/08 01:56:21;;;;;;;33.80;14.85;;;;;;;7.67;100.00;102161.63;4992603;28;20125;-82
2023/04/08 01:58:51;;;;;;;31.05;14.90;;;;;;;7.71;100.00;102173.25;4975002;28;20045;-82
2023/04/08 02:01:20;;;;;;;38.13;14.82;;;;;;;7.70;100.00;102164.22;4974117;28;20041;-82
2023/04/08 02:03:47;;;;;;;30.40;15.30;;;;;;;7.69;100.00;102167.84;4974636;28;20065;-82
2023/04/08 02:06:13;;;;;;;34.63;15.95;;;;;;;7.70;100.00;102169.66;4977097;28;20512;-82
2023/04/08 02:08:38;;;;;;;38.90;15.82;;;;;;;7.70;100.00;102171.47;5000051;28;20050;-82
2023/04/08 02:11:04;;;;;;;36.88;15.82;;;;;;;7.70;100.00;102176.91;4991832;28;20378;-82
2023/04/08 02:13:30;;;;;;;34.58;16.15;;;;;;;7.68;100.00;102166.97;4975000;28;20372;-82
2023/04/08 02:16:03;;;;;;;28.95;15.40;;;;;;;7.70;100.00;102163.34;4972905;28;20038;-83
2023/04/08 02:18:31;;;;;;;33.80;16.33;;;;;;;7.68;100.00;102172.41;4990230;28;20441;-82
2023/04/08 02:21:13;;;;;;;32.75;15.43;;;;;;;7.70;100.00;102177.78;4974225;28;20052;-82
2023/04/08 02:23:40;;;;;;;35.08;16.33;;;;;;;7.69;100.00;102173.28;4974988;28;20030;-82
2023/04/08 02:26:13;;;;;;;34.35;15.25;;;;;;;7.67;100.00;102172.47;4990899;28;20089;-82
2023/04/08 02:28:40;;;;;;;34.58;16.05;;;;;;;7.64;100.00;102170.75;5009558;28;20078;-83
2023/04/08 02:31:14;;;;;;;43.60;16.42;;;;;;;7.68;100.00;102174.22;4992608;28;20474;-82
2023/04/08 02:33:44;;;;;;;32.13;14.35;;;;;;;7.66;100.00;102174.28;4994423;28;20061;-82
2023/04/08 02:36:11;;;;;;;35.63;16.23;;;;;;;7.66;100.00;102173.41;4990592;28;20162;-83
2023/04/08 02:38:37;;;;;;;36.03;16.55;;;;;;;7.63;100.00;102174.41;4982753;28;20129;-82
2023/04/08 02:41:03;;;;;;;40.10;16.65;;;;;;;7.64;100.00;102176.16;4993445;28;20029;-82
2023/04/08 02:43:31;;;;;;;33.17;16.90;;;;;;;7.66;100.00;102186.97;4974824;28;20430;-82
2023/04/08 02:45:59;;;;;;;31.00;15.02;;;;;;;7.60;100.00;102170.91;4988895;28;20058;-82
2023/04/08 02:48:25;;;;;;;36.40;15.60;;;;;;;7.64;100.00;102184.28;4989854;28;20030;-82
2023/04/08 02:50:50;;;;;;;40.80;17.00;;;;;;;7.67;100.00;102194.13;4979775;28;20371;-82
2023/04/08 02:53:15;;;;;;;37.22;15.68;;;;;;;7.66;100.00;102195.97;4990540;28;20091;-83
2023/04/08 02:55:41;;;;;;;35.03;16.05;;;;;;;7.64;100.00;102186.13;4992934;28;20018;-82
2023/04/08 02:58:06;;;;;;;40.28;16.80;;;;;;;7.63;100.00;102193.38;4994424;28;20043;-83
2023/04/08 03:00:32;;;;;;;43.88;16.48;;;;;;;7.62;100.00;102194.31;4972584;28;20034;-82
2023/04/08 03:02:57;;;;;;;38.05;17.17;;;;;;;7.63;100.00;102195.19;4973011;28;20084;-82
2023/04/08 03:05:23;;;;;;;38.80;17.23;;;;;;;7.62;100.00;102194.31;4973546;28;20057;-82
2023/04/08 03:07:48;;;;;;;44.55;16.58;;;;;;;7.62;100.00;102190.72;4978712;28;20041;-82
2023/04/08 03:10:13;;;;;;;40.38;16.00;;;;;;;7.62;100.00;102193.44;4993277;28;20104;-82
2023/04/08 03:12:39;;;;;;;35.78;16.50;;;;;;;7.60;100.00;102181.75;4996374;28;20034;-82
2023/04/08 03:15:05;;;;;;;37.10;16.98;;;;;;;7.65;100.00;102196.03;4973251;28;20030;-82
2023/04/08 03:17:32;;;;;;;45.50;17.42;;;;;;;7.61;100.00;102183.56;4986632;28;20038;-82
2023/04/08 03:19:58;;;;;;;40.13;16.70;;;;;;;7.63;100.00;102190.66;4972858;28;20756;-82
2023/04/08 03:22:23;;;;;;;43.65;16.70;;;;;;;7.61;100.00;102188.97;4998240;28;20120;-82
2023/04/08 03:24:49;;;;;;;37.88;16.90;;;;;;;7.60;100.00;102189.88;4991488;28;20033;-83
2023/04/08 03:27:14;;;;;;;39.88;17.45;;;;;;;7.59;100.00;102188.13;4998717;28;20121;-83
2023/04/08 03:29:40;;;;;;;40.22;16.35;;;;;;;7.60;100.00;102185.38;4972499;28;20041;-81
2023/04/08 03:32:05;;;;;;;43.20;17.58;;;;;;;7.59;100.00;102189.00;4990389;28;20038;-82
2023/04/08 03:34:33;;;;;;;39.95;16.73;;;;;;;7.52;100.00;102183.91;4990751;28;20418;-83
2023/04/08 03:36:58;;;;;;;38.97;16.98;;;;;;;7.52;100.00;102184.78;4981704;28;20030;-82
2023/04/08 03:39:24;;;;;;;33.60;15.70;;;;;;;7.52;100.00;102189.31;4992464;28;20519;-82
2023/04/08 03:41:49;;;;;;;38.88;15.55;;;;;;;7.42;100.00;102180.66;4992014;28;20025;-83
2023/04/08 03:44:14;;;;;;;33.60;15.63;;;;;;;7.41;100.00;102190.63;4991793;28;20033;-83
2023/04/08 03:46:40;;;;;;;41.85;17.20;;;;;;;7.39;100.00;102183.47;5009434;28;20478;-82
2023/04/08 03:49:06;;;;;;;44.25;17.75;;;;;;;7.39;100.00;102188.88;4977193;28;20455;-82
2023/04/08 03:51:31;;;;;;;38.00;16.05;;;;;;;7.34;100.00;102197.19;4988352;28;20038;-82
2023/04/08 03:53:57;;;;;;;38.63;17.83;;;;;;;7.29;100.00;102192.88;4986437;28;20119;-82
2023/04/08 03:56:23;;;;;;;34.20;15.48;;;;;;;7.23;100.00;102196.72;5008180;28;20030;-82
2023/04/08 03:58:49;;;;;;;33.75;17.20;;;;;;;7.18;100.00;102193.28;4969388;28;20509;-82
2023/04/08 04:01:15;;;;;;;44.85;17.05;;;;;;;7.13;100.00;102196.16;4980121;28;20030;-82
2023/04/08 04:03:41;;;;;;;33.88;16.33;;;;;;;7.14;100.00;102197.94;4972518;28;20498;-82
2023/04/08 04:06:06;;;;;;;44.63;16.83;;;;;;;7.11;100.00;102205.25;4980885;28;20038;-82
2023/04/08 04:08:32;;;;;;;39.30;16.95;;;;;;;7.09;100.00;102208.03;4987506;28;20069;-83
2023/04/08 04:10:58;;;;;;;41.92;17.25;;;;;;;7.07;100.00;102204.47;4972077;28;20438;-82
2023/04/08 04:13:24;;;;;;;35.50;17.05;;;;;;;7.04;100.00;102195.59;4988185;28;20065;-82
2023/04/08 04:15:49;;;;;;;40.08;16.20;;;;;;;7.06;100.00;102202.72;4987714;28;20065;-82
2023/04/08 04:18:15;;;;;;;48.50;16.83;;;;;;;7.05;100.00;102200.09;4972471;28;20033;-82
2023/04/08 04:20:41;;;;;;;37.60;16.70;;;;;;;7.03;100.00;102210.06;5006093;28;20104;-82
2023/04/08 04:23:07;;;;;;;37.75;17.00;;;;;;;7.04;100.00;102212.72;4990761;28;20030;-83
2023/04/08 04:25:33;;;;;;;41.60;17.10;;;;;;;7.02;100.00;102208.31;4972130;28;20031;-82
2023/04/08 04:27:58;;;;;;;43.05;16.50;;;;;;;7.06;100.00;102220.78;4984317;28;20485;-82
2023/04/08 04:30:23;;;;;;;47.22;17.17;;;;;;;7.05;100.00;102211.78;4988652;28;20082;-82
2023/04/08 04:32:49;;;;;;;39.38;15.25;;;;;;;7.07;100.00;102222.53;4971798;28;20053;-82
2023/04/08 04:35:14;;;;;;;34.88;14.00;;;;;;;7.11;100.00;102233.22;4972775;28;20034;-82
2023/04/08 04:37:39;;;;;;;37.30;16.30;;;;;;;7.09;100.00;102232.38;5000042;28;20113;-82
2023/04/08 04:40:06;;;;;;;38.72;15.57;;;;;;;7.04;100.00;102219.94;4988287;28;20073;-82
2023/04/08 04:42:32;;;;;;;51.55;17.85;;;;;;;7.11;100.00;102235.91;4998447;28;20112;-82
2023/04/08 04:44:58;;;;;;;41.28;17.27;;;;;;;7.12;100.00;102243.09;5006899;28;20430;-82
2023/04/08 04:47:24;;;;;;;50.60;19.98;;;;;;;7.11;100.00;102235.91;5005780;28;20061;-82
2023/04/08 04:49:49;;;;;;;48.08;19.40;;;;;;;7.12;100.00;102237.66;5007553;28;20095;-82
2023/04/08 04:52:15;;;;;;;39.33;18.73;;;;;;;7.14;100.00;102243.94;4980457;28;20379;-82
2023/04/08 04:54:40;;;;;;;36.10;16.80;;;;;;;7.14;100.00;102241.22;4986574;28;20042;-83
2023/04/08 04:57:06;;;;;;;45.78;17.55;;;;;;;7.12;100.00;102239.50;4989400;28;20034;-82
2023/04/08 04:59:31;;;;;;;38.20;18.23;;;;;;;7.18;100.00;102251.91;4987148;28;20447;-82
2023/04/08 05:01:57;;;;;;;42.45;17.92;;;;;;;7.09;100.00;102242.34;5003479;28;20113;-82
2023/04/08 05:04:24;;;;;;;44.10;17.02;;;;;;;7.19;100.00;102254.59;4987666;28;20030;-82
2023/04/08 05:06:49;;;;;;;51.33;19.13;;;;;;;7.20;100.00;102260.88;4978138;28;20060;-82
2023/04/08 05:09:15;;;;;;;51.15;19.15;;;;;;;7.21;100.00;102252.69;4992640;28;20114;-82
2023/04/08 05:11:40;;;;;;;47.45;18.13;;;;;;;7.21;100.00;102257.22;4989234;28;20112;-82
2023/04/08 05:14:06;;;;;;;50.08;18.27;;;;;;;7.20;100.00;102260.88;5006349;28;20021;-82
2023/04/08 05:16:33;;;;;;;48.00;18.08;;;;;;;7.21;100.00;102268.94;4994807;28;20038;-82
2023/04/08 05:18:59;;;;;;;57.17;22.65;;;;;;;7.13;100.00;102261.13;4972447;28;20423;-82
2023/04/08 05:21:25;;;;;;;49.35;20.20;;;;;;;7.12;100.00;102266.56;4959839;28;20018;-82
2023/04/08 05:23:51;;;;;;;54.50;22.48;;;;;;;7.10;100.00;102274.75;4996117;28;20129;-82
2023/04/08 05:26:23;;;;;;;59.15;22.73;;;;;;;7.03;100.00;102272.28;4987036;28;20039;-82
2023/04/08 05:28:52;;;;;;;55.97;22.30;;;;;;;7.00;100.00;102277.84;4996283;28;20516;-82
2023/04/08 05:31:18;;;;;;;62.33;24.40;;;;;;;6.95;100.00;102271.66;4986154;28;20045;-81
2023/04/08 05:33:44;;;;;;;55.03;22.92;;;;;;;6.96;100.00;102277.03;4972193;28;20606;-82
2023/04/08 05:36:10;;;;;;;57.45;22.70;;;;;;;6.96;100.00;102276.16;4988109;28;20027;-82
2023/04/08 05:38:35;;;;;;;53.28;21.70;;;;;;;6.96;100.00;102281.56;4998240;28;20038;-82
2023/04/08 05:41:01;;;;;;;51.67;21.45;;;;;;;6.94;100.00;102281.59;4987292;28;20351;-82
2023/04/08 05:43:26;;;;;;;51.17;21.65;;;;;;;6.92;100.00;102272.69;4987076;28;20655;-82
2023/04/08 05:45:52;;;;;;;48.58;20.42;;;;;;;6.98;100.00;102280.56;5005332;28;20033;-82
2023/04/08 05:48:17;;;;;;;57.25;21.90;;;;;;;7.01;100.00;102283.19;5006910;28;20034;-82
2023/04/08 05:50:42;;;;;;;51.45;22.13;;;;;;;7.03;100.00;102284.00;4994964;28;20425;-81
2023/04/08 05:53:08;;;;;;;55.22;21.85;;;;;;;6.99;100.00;102274.22;4986887;28;20042;-82
2023/04/08 05:55:34;;;;;;;50.30;19.63;;;;;;;7.12;100.00;102288.22;5003990;28;20047;-82
2023/04/08 05:58:00;;;;;;;46.72;22.10;;;;;;;7.18;100.00;102284.41;4971641;28;20046;-82
2023/04/08 06:00:25;;;;;;;44.22;19.10;;;;;;;7.23;100.00;102295.94;4969868;28;20490;-82
2023/04/08 06:02:51;;;;;;;48.22;20.70;;;;;;;7.30;100.00;102294.81;4983253;28;20101;-82
2023/04/08 06:05:17;;;;;;;45.45;19.75;;;;;;;7.30;100.00;102295.69;4967809;28;20026;-82
2023/04/08 06:07:43;;;;;;;48.42;20.48;;;;;;;7.30;100.00;102298.38;4969614;28;20037;-82
2023/04/08 06:10:09;;;;;;;45.05;20.90;;;;;;;7.29;100.00;102295.75;4969710;28;20121;-82
2023/04/08 06:12:37;;;;;;;44.10;18.92;;;;;;;7.34;100.00;102300.06;4970833;28;20030;-82
2023/04/08 06:15:03;;;;;;;48.47;19.98;;;;;;;7.37;100.00;102302.66;4989925;28;20144;-82
2023/04/08 06:17:28;;;;;;;44.10;19.65;;;;;;;7.45;100.00;102301.50;4987792;28;20113;-82
2023/04/08 06:19:54;;;;;;;46.70;18.67;;;;;;;7.51;100.00;102301.28;4987522;28;20550;-83
2023/04/08 06:22:20;;;;;;;41.45;17.70;;;;;;;7.58;100.00;102303.69;5000687;28;20088;-82
2023/04/08 06:24:46;;;;;;;43.05;19.67;;;;;;;7.62;100.00;102307.19;4975507;28;20027;-82
2023/04/08 06:27:12;;;;;;;45.17;18.80;;;;;;;7.65;100.00;102315.22;5019551;28;20034;-82
2023/04/08 06:29:37;;;;;;;44.72;20.75;;;;;;;7.73;100.00;102318.50;4982574;28;20441;-82
2023/04/08 06:32:03;;;;;;;41.42;19.02;;;;;;;7.74;100.00;102325.72;4970139;28;20447;-82
2023/04/08 06:34:28;;;;;;;45.30;19.23;;;;;;;7.74;100.00;102332.91;4971854;28;20030;-82
2023/04/08 06:36:54;;;;;;;47.47;18.98;;;;;;;7.71;100.00;102325.81;4982943;28;20129;-82
2023/04/08 06:39:20;;;;;;;47.22;20.75;;;;;;;7.73;100.00;102332.03;5001636;28;20026;-82
2023/04/08 06:41:45;;;;;;;41.95;18.90;;;;;;;7.76;100.00;102331.94;4975549;28;20544;-82
2023/04/08 06:44:36;;;;;;;50.75;19.02;;;;;;;7.88;100.00;102341.41;4975233;28;20113;-82
2023/04/08 06:47:01;;;;;;;39.03;18.92;;;;;;;7.90;100.00;102343.16;4971169;28;20070;-82
2023/04/08 06:49:26;;;;;;;38.30;19.17;;;;;;;7.94;100.00;102338.50;4976102;28;20505;-82
2023/04/08 06:51:52;;;;;;;36.70;17.08;;;;;;;7.98;100.00;102345.59;4995506;28;20490;-82
2023/04/08 06:54:17;;;;;;;40.08;18.08;;;;;;;8.07;100.00;102344.34;4981592;28;20562;-82
2023/04/08 06:56:42;;;;;;;38.03;19.33;;;;;;;8.09;100.00;102342.47;4976233;28;20082;-82
2023/04/08 06:59:08;;;;;;;34.63;16.50;;;;;;;8.06;100.00;102347.97;4986696;28;20077;-82
2023/04/08 07:01:34;;;;;;;33.70;16.42;;;;;;;8.06;100.00;102347.97;4990330;28;20042;-82
2023/04/08 07:04:01;;;;;;;30.23;15.77;;;;;;;8.14;100.00;102354.00;4988732;28;20149;-82
2023/04/08 07:06:26;;;;;;;34.95;15.48;;;;;;;8.20;100.00;102364.59;4989133;28;20068;-82
2023/04/08 07:08:52;;;;;;;31.05;14.73;;;;;;;8.22;100.00;102368.16;4988710;28;20533;-83
2023/04/08 07:11:17;;;;;;;35.38;17.25;;;;;;;8.16;100.00;102371.13;4971651;28;20096;-82
2023/04/08 07:13:42;;;;;;;31.23;15.43;;;;;;;8.14;100.00;102367.56;4972733;28;20045;-82
2023/04/08 07:16:08;;;;;;;30.08;15.40;;;;;;;8.12;100.00;102375.75;4972988;28;20030;-82
2023/04/08 07:18:33;;;;;;;32.22;15.73;;;;;;;8.13;99.83;102379.34;4970809;28;20042;-82
2023/04/08 07:20:59;;;;;;;32.15;15.48;;;;;;;8.17;100.00;102375.59;4989951;28;20104;-82
2023/04/08 07:23:25;;;;;;;31.15;16.25;;;;;;;8.25;100.00;102383.41;4999665;28;20473;-82
2023/04/08 07:25:51;;;;;;;29.90;15.98;;;;;;;8.28;100.00;102377.88;4988841;28;20034;-82
2023/04/08 07:28:16;;;;;;;29.55;15.48;;;;;;;8.31;99.65;102388.63;4972039;28;20076;-83
2023/04/08 07:30:42;;;;;;;33.35;15.30;;;;;;;8.22;99.07;102397.09;4987759;28;20041;-82
2023/04/08 07:33:07;;;;;;;30.75;15.73;;;;;;;8.10;99.35;102398.44;4989009;28;20045;-81
2023/04/08 07:35:33;;;;;;;32.90;17.05;;;;;;;8.07;100.00;102395.84;5004033;28;20018;-82
2023/04/08 07:37:58;;;;;;;31.65;16.35;;;;;;;8.13;100.00;102401.91;4972290;28;20038;-82
2023/04/08 07:40:23;;;;;;;31.40;15.80;;;;;;;8.07;100.00;102395.84;4989861;28;20490;-82
2023/04/08 07:42:49;;;;;;;35.08;16.20;;;;;;;8.12;100.00;102397.44;4986241;28;20521;-82
2023/04/08 07:45:14;;;;;;;33.55;17.13;;;;;;;8.12;100.00;102397.44;4982740;28;20069;-82
2023/04/08 07:47:40;;;;;;;35.00;15.88;;;;;;;8.24;100.00;102397.91;4989930;28;20088;-82
2023/04/08 07:50:06;;;;;;;36.47;16.15;;;;;;;8.27;100.00;102398.69;4995199;28;20037;-82
2023/04/08 07:52:33;;;;;;;34.05;17.05;;;;;;;8.22;99.05;102407.94;4995904;28;20487;-82
2023/04/08 07:54:58;;;;;;;30.65;15.57;;;;;;;8.10;98.77;102403.84;4978241;28;20037;-82
2023/04/08 07:57:25;;;;;;;33.20;16.98;;;;;;;8.05;98.87;102404.03;5000592;28;20552;-82
2023/04/08 07:59:50;;;;;;;36.63;17.15;;;;;;;8.02;99.81;102406.88;4988007;28;20042;-82
2023/04/08 08:02:15;;;;;;;34.13;17.15;;;;;;;8.07;100.00;102403.97;4989147;28;20030;-82
2023/04/08 08:04:41;;;;;;;37.30;18.52;;;;;;;8.13;100.00;102412.75;4969927;28;20039;-82
2023/04/08 08:07:07;;;;;;;35.38;18.02;;;;;;;8.07;100.00;102414.81;4973344;28;20030;-82
2023/04/08 08:09:32;;;;;;;37.60;16.98;;;;;;;8.08;100.00;102424.72;4988128;28;20036;-82
2023/04/08 08:11:57;;;;;;;35.08;17.67;;;;;;;8.05;100.00;102416.69;5002969;28;20402;-82
2023/04/08 08:14:24;;;;;;;33.60;17.08;;;;;;;8.09;100.00;102424.66;4988171;28;20124;-82
2023/04/08 08:16:49;;;;;;;33.20;17.35;;;;;;;8.19;99.82;102431.50;4971886;28;20034;-82
2023/04/08 08:19:15;;;;;;;41.35;17.52;;;;;;;8.12;100.00;102427.25;4950339;28;20169;-82
2023/04/08 08:21:40;;;;;;;40.53;16.90;;;;;;;8.19;100.00;102427.91;4974238;28;20145;-82
2023/04/08 08:24:07;;;;;;;36.58;18.00;;;;;;;8.28;100.00;102432.97;4994854;28;20097;-82
2023/04/08 08:26:35;;;;;;;39.45;17.58;;;;;;;8.27;100.00;102433.06;4985578;28;20170;-82
2023/04/08 08:29:01;;;;;;;36.38;16.95;;;;;;;8.33;99.53;102435.53;4968692;28;20111;-82
2023/04/08 08:31:26;;;;;;;36.45;19.02;;;;;;;8.40;99.57;102440.72;4979776;28;20548;-82
2023/04/08 08:33:52;;;;;;;39.33;18.30;;;;;;;8.45;100.00;102439.66;4988470;28;20030;-82
2023/04/08 08:36:17;;;;;;;34.78;17.98;;;;;;;8.47;99.44;102435.91;4988105;28;20038;-82
2023/04/08 08:38:42;;;;;;;37.78;18.20;;;;;;;8.59;99.99;102437.28;5006312;28;20478;-82
2023/04/08 08:41:08;;;;;;;38.67;18.63;;;;;;;8.66;99.66;102436.09;4990650;28;20129;-82
2023/04/08 08:43:34;;;;;;;40.60;18.52;;;;;;;8.63;98.85;102439.84;5001957;28;20191;-82
2023/04/08 08:46:00;;;;;;;41.40;19.85;;;;;;;8.60;99.72;102437.22;4969595;28;20093;-83
2023/04/08 08:48:26;;;;;;;38.67;17.70;;;;;;;8.62;99.80;102451.59;4974330;28;20038;-82
2023/04/08 08:50:51;;;;;;;38.65;17.70;;;;;;;8.69;98.79;102446.84;5000550;28;20498;-82
2023/04/08 08:53:18;;;;;;;38.28;18.40;;;;;;;8.80;99.74;102452.72;4999992;28;20021;-82
2023/04/08 08:55:43;;;;;;;39.15;17.58;;;;;;;8.87;98.96;102462.41;4986525;28;20073;-82
2023/04/08 08:58:09;;;;;;;37.50;19.27;;;;;;;8.91;98.50;102455.91;4993694;28;20927;-82
2023/04/08 09:00:39;;;;;;;34.67;18.27;;;;;;;8.96;98.52;102454.84;4988026;28;20399;-82
2023/04/08 09:03:18;;;;;;;36.90;18.55;;;;;;;9.05;98.95;102458.06;4988301;28;20479;-82
2023/04/08 09:05:52;;;;;;;35.20;18.00;;;;;;;9.09;99.02;102461.53;4987365;28;20034;-83
2023/04/08 09:08:30;;;;;;;31.77;16.65;;;;;;;9.21;98.29;102461.03;4981916;28;20127;-82
2023/04/08 09:11:13;;;;;;;30.02;17.17;;;;;;;9.10;96.92;102463.31;4970913;28;20030;-82
2023/04/08 09:13:39;;;;;;;;;;;;;;;9.06;97.61;102465.28;4988268;28;20065;-82
2023/04/08 09:16:08;;;;;;;28.92;15.32;;;;;;;8.98;95.64;102477.38;4986829;28;19913;-82
2023/04/08 09:18:34;;;;;;;28.30;16.23;;;;;;;8.87;96.05;102478.69;4983722;28;20030;-82
2023/04/08 09:21:01;;;;;;;28.45;16.15;;;;;;;8.81;96.24;102478.94;4987431;28;20046;-81
2023/04/08 09:23:42;;;;;;;28.38;15.77;;;;;;;8.76;97.95;102485.47;4994612;28;20041;-81
2023/04/08 09:26:10;;;;;;;28.50;16.25;;;;;;;8.86;98.73;102490.50;4990874;28;20156;-82
2023/04/08 09:28:36;;;;;;;28.08;15.20;;;;;;;8.90;96.54;102483.97;5006535;28;20049;-82
2023/04/08 09:31:22;;;;;;;27.85;16.48;;;;;;;8.95;97.71;102483.78;4989960;28;20541;-82
2023/04/08 09:33:57;;;;;;;25.55;16.70;;;;;;;9.05;96.48;102484.34;5007398;28;20121;-82
2023/04/08 09:36:22;;;;;;;30.83;17.13;;;;;;;9.15;96.29;102488.47;5005804;28;20264;-82
2023/04/08 09:38:48;;;;;;;26.63;15.57;;;;;;;9.18;94.04;102475.63;4980702;28;20550;-83
2023/04/08 09:41:15;;;;;;;27.65;16.48;;;;;;;9.30;94.61;102493.25;4986725;28;20118;-82
2023/04/08 09:43:47;;;;;;;26.98;15.85;;;;;;;9.45;95.37;102480.88;4987614;28;20029;-83
2023/04/08 09:46:13;;;;;;;29.80;16.23;;;;;;;9.62;93.68;102489.22;4989378;28;20450;-82
2023/04/08 09:48:45;;;;;;;26.85;15.60;;;;;;;9.52;90.82;102490.56;5008575;28;20037;-82
2023/04/08 09:51:15;;;;;;;24.60;15.85;;;;;;;9.57;92.71;102488.53;5002758;28;20034;-81
2023/04/08 09:53:46;;;;;;;28.40;16.85;;;;;;;9.80;94.58;102497.53;4998657;28;20034;-83
2023/04/08 09:56:13;;;;;;;27.33;16.38;;;;;;;10.05;94.18;102491.91;5010711;28;20175;-83
2023/04/08 09:58:48;;;;;;;26.77;16.80;;;;;;;10.38;94.00;102492.28;5008411;28;20407;-82
2023/04/08 10:01:33;;;;;;;26.38;15.93;;;;;;;10.67;91.37;102501.81;4992749;28;20406;-82
2023/04/08 10:04:04;;;;;;;25.85;16.42;;;;;;;11.05;92.65;102491.88;5006821;28;20041;-82
2023/04/08 10:06:31;;;;;;;25.67;15.55;;;;;;;11.03;84.33;102482.88;4989671;28;20042;-82
2023/04/08 10:08:58;;;;;;;24.90;15.88;;;;;;;10.82;85.04;102503.84;4999992;28;20049;-82
2023/04/08 10:11:23;;;;;;;27.58;16.70;;;;;;;10.64;87.31;102493.81;4980515;28;20082;-82
2023/04/08 10:13:50;;;;;;;27.02;15.48;;;;;;;10.66;88.51;102505.50;4986359;28;20122;-82
2023/04/08 10:16:16;;;;;;;27.65;16.88;;;;;;;10.57;85.91;102501.38;4967232;28;20037;-82
2023/04/08 10:18:43;;;;;;;27.02;16.85;;;;;;;10.42;87.17;102499.34;4965484;28;20035;-81
2023/04/08 10:21:37;;;;;;;25.65;16.73;;;;;;;10.34;89.30;102505.13;4973704;28;20042;-82
2023/04/08 10:24:07;;;;;;;25.40;16.02;;;;;;;10.15;86.92;102498.72;4991692;28;20505;-82
2023/04/08 10:26:34;;;;;;;27.75;16.40;;;;;;;10.17;87.56;102496.81;4973824;28;20049;-82
2023/04/08 10:29:20;;;;;;;27.58;16.48;;;;;;;10.43;87.60;102493.84;4988421;28;20050;-81
2023/04/08 10:31:47;;;;;;;29.63;17.42;;;;;;;10.34;86.49;102499.69;4976458;28;20041;-81
2023/04/08 10:34:19;;;;;;;29.25;18.13;;;;;;;10.28;87.97;102494.53;4969835;28;20133;-81
2023/04/08 10:36:45;;;;;;;27.77;17.93;;;;;;;10.40;88.41;102493.13;4987981;28;20100;-81
2023/04/08 10:39:15;;;;;;;25.95;16.35;;;;;;;10.51;86.86;102488.06;4979659;28;20038;-82
2023/04/08 10:41:44;;;;;;;27.27;17.52;;;;;;;10.60;86.39;102494.91;4989701;28;20041;-82
2023/04/08 10:44:23;;;;;;;28.90;17.67;;;;;;;10.74;89.84;102489.72;4987547;28;20655;-82
2023/04/08 10:46:50;;;;;;;26.38;16.73;;;;;;;10.79;85.26;102494.94;4990219;28;20589;-81
2023/04/08 10:49:17;;;;;;;28.38;16.98;;;;;;;10.93;87.33;102484.28;4988539;28;20029;-81
2023/04/08 10:51:43;;;;;;;25.15;16.98;;;;;;;11.31;85.90;102479.69;4989980;28;20038;-82
2023/04/08 10:54:14;;;;;;;29.45;17.92;;;;;;;11.58;84.72;102484.72;4988270;28;20121;-82
2023/04/08 10:56:45;;;;;;;28.30;18.33;;;;;;;11.58;83.17;102473.84;4988013;28;20532;-81
2023/04/08 10:59:15;;;;;;;28.30;18.23;;;;;;;11.99;87.98;102458.97;4989693;28;20416;-82
2023/04/08 11:01:41;;;;;;;29.83;18.92;;;;;;;12.40;82.42;102464.09;5005605;28;20042;-82
2023/04/08 11:04:14;;;;;;;27.02;17.70;;;;;;;12.64;82.62;102460.97;4987483;28;20018;-82
2023/04/08 11:06:41;;;;;;;26.95;17.55;;;;;;;12.83;78.87;102449.91;4972708;28;20046;-82
2023/04/08 11:09:07;;;;;;;24.35;16.35;;;;;;;12.94;76.12;102455.63;4988230;28;20061;-82
2023/04/08 11:11:33;;;;;;;25.45;16.80;;;;;;;13.08;76.94;102465.78;4987855;28;20474;-82